createdAt,value
2023-05-24T00:02:21.518Z,96520.91
2023-05-24T00:04:49.672Z,96450.84
2023-05-24T00:07:16.784Z,96513.13
2023-05-24T00:09:43.732Z,96488.16
2023-05-24T00:12:11.120Z,96482.59
2023-05-24T00:14:38.092Z,96476.94
2023-05-24T00:17:05.269Z,96498.38
2023-05-24T00:19:32.300Z,96503.78
2023-05-24T00:21:59.621Z,96486.22
2023-05-24T00:24:26.519Z,96491.53
2023-05-24T00:26:53.436Z,96468.94
2023-05-24T00:29:20.728Z,96474.00
2023-05-24T00:31:47.704Z,96472.78
2023-05-24T00:34:14.706Z,96469.25
2023-05-24T00:36:41.596Z,96474.25
2023-05-24T00:39:08.973Z,96492.69
2023-05-24T00:41:35.868Z,96473.09
2023-05-24T00:44:02.757Z,96489.72
2023-05-24T00:46:32.558Z,96477.53
2023-05-24T00:49:01.049Z,96488.81
2023-05-24T00:51:28.548Z,96497.19
2023-05-24T00:53:56.225Z,96502.97
2023-05-24T00:56:23.620Z,96498.53
2023-05-24T00:58:54.961Z,96498.22
2023-05-24T01:01:26.153Z,96483.81
2023-05-24T01:03:54.756Z,96468.91
2023-05-24T01:06:22.136Z,96473.16
2023-05-24T01:09:14.321Z,96469.66
2023-05-24T01:12:03.011Z,96504.88
2023-05-24T01:14:58.396Z,96503.28
2023-05-24T01:17:38.317Z,96499.84
2023-05-24T01:20:10.454Z,96472.75
2023-05-24T01:22:46.533Z,96476.03
2023-05-24T01:25:28.186Z,96478.38
2023-05-24T01:27:55.983Z,96468.09
2023-05-24T01:30:24.711Z,96479.22
2023-05-24T01:32:51.965Z,96418.31
2023-05-24T01:35:18.945Z,96452.81
2023-05-24T01:37:45.914Z,96505.34
2023-05-24T01:40:13.354Z,96473.88
2023-05-24T01:43:13.733Z,96461.63
2023-05-24T01:46:05.085Z,96483.41
2023-05-24T01:48:42.929Z,96464.97
2023-05-24T01:51:16.055Z,96459.06
2023-05-24T01:53:47.757Z,96464.47
2023-05-24T01:56:17.589Z,96493.19
2023-05-24T01:58:46.944Z,96496.13
2023-05-24T02:01:14.515Z,96493.84
2023-05-24T02:03:41.839Z,96473.81
2023-05-24T02:06:08.833Z,96476.94
2023-05-24T02:08:35.835Z,96479.66
2023-05-24T02:11:02.884Z,96490.72
2023-05-24T02:13:29.778Z,96465.25
2023-05-24T02:15:56.726Z,96489.81
2023-05-24T02:18:25.920Z,96457.72
2023-05-24T02:20:52.867Z,96447.78
2023-05-24T02:23:19.726Z,96488.88
2023-05-24T02:25:46.704Z,96485.63
2023-05-24T02:28:13.643Z,96489.53
2023-05-24T02:30:40.933Z,96488.75
2023-05-24T02:33:08.117Z,96486.72
2023-05-24T02:35:35.198Z,96479.75
2023-05-24T02:38:03.982Z,96460.38
2023-05-24T02:40:30.822Z,96459.44
2023-05-24T02:42:57.803Z,96476.81
2023-05-24T02:45:24.710Z,96487.03
2023-05-24T02:47:51.622Z,96447.19
2023-05-24T02:50:18.595Z,96492.47
2023-05-24T02:52:45.557Z,96459.13
2023-05-24T02:55:12.587Z,96489.34
2023-05-24T02:57:39.473Z,96489.66
2023-05-24T03:00:11.356Z,96451.84
2023-05-24T03:02:41.351Z,96497.59
2023-05-24T03:05:08.903Z,96469.22
2023-05-24T03:07:35.969Z,96492.16
2023-05-24T03:10:02.983Z,96487.38
2023-05-24T03:12:29.922Z,96481.47
2023-05-24T03:14:56.882Z,96502.09
2023-05-24T03:17:23.994Z,96469.66
2023-05-24T03:19:52.736Z,96495.09
2023-05-24T03:22:20.068Z,96505.16
2023-05-24T03:24:48.954Z,96502.22
2023-05-24T03:27:16.517Z,96480.38
2023-05-24T03:29:43.369Z,96467.41
2023-05-24T03:32:10.696Z,96465.16
2023-05-24T03:34:37.943Z,96500.66
2023-05-24T03:37:05.213Z,96485.34
2023-05-24T03:39:32.122Z,96494.28
2023-05-24T03:42:15.622Z,96478.47
2023-05-24T03:44:42.571Z,96476.25
2023-05-24T03:47:09.670Z,96505.00
2023-05-24T03:49:37.157Z,96511.50
2023-05-24T03:52:04.828Z,96496.78
2023-05-24T03:54:32.044Z,96491.03
2023-05-24T03:56:58.937Z,96504.94
2023-05-24T03:59:25.858Z,96491.75
2023-05-24T04:01:52.802Z,96515.22
2023-05-24T04:04:19.916Z,96504.88
2023-05-24T04:06:48.146Z,96517.88
2023-05-24T04:09:16.428Z,96513.34
2023-05-24T04:11:43.354Z,96519.19
2023-05-24T04:14:12.205Z,96494.22
2023-05-24T04:16:39.963Z,96516.25
2023-05-24T04:19:07.021Z,96494.66
2023-05-24T04:21:35.353Z,96510.03
2023-05-24T04:24:02.467Z,96508.31
2023-05-24T04:26:30.441Z,96484.13
2023-05-24T04:28:58.460Z,96502.59
2023-05-24T04:31:26.496Z,96486.31
2023-05-24T04:33:53.495Z,96482.69
2023-05-24T04:36:23.184Z,96517.97
2023-05-24T04:38:53.808Z,96522.69
2023-05-24T04:41:22.663Z,96513.41
2023-05-24T04:43:50.543Z,96528.97
2023-05-24T04:46:17.516Z,96507.53
2023-05-24T04:48:44.926Z,96514.06
2023-05-24T04:51:11.794Z,96524.44
2023-05-24T04:53:38.866Z,96509.94
2023-05-24T04:56:05.864Z,96519.47
2023-05-24T04:58:33.591Z,96504.56
2023-05-24T05:01:00.432Z,96520.41
2023-05-24T05:03:27.409Z,96491.44
2023-05-24T05:05:54.311Z,96521.19
2023-05-24T05:08:21.823Z,96508.63
2023-05-24T05:10:48.966Z,96496.59
2023-05-24T05:13:15.897Z,96496.25
2023-05-24T05:15:43.200Z,96525.94
2023-05-24T05:18:10.108Z,96539.47
2023-05-24T05:20:37.200Z,96540.03
2023-05-24T05:23:04.247Z,96541.75
2023-05-24T05:25:31.318Z,96539.56
2023-05-24T05:27:58.225Z,96522.66
2023-05-24T05:30:25.112Z,96541.66
2023-05-24T05:32:52.041Z,96549.53
2023-05-24T05:35:19.031Z,96521.19
2023-05-24T05:37:46.105Z,96539.69
2023-05-24T05:40:13.088Z,96559.59
2023-05-24T05:42:39.937Z,96558.28
2023-05-24T05:45:07.567Z,96562.66
2023-05-24T05:47:34.651Z,96547.31
2023-05-24T05:50:01.720Z,96549.19
2023-05-24T05:52:28.594Z,96557.81
2023-05-24T05:54:55.521Z,96563.59
2023-05-24T05:57:24.570Z,96568.72
2023-05-24T05:59:51.872Z,96551.81
2023-05-24T06:02:23.169Z,96575.78
2023-05-24T06:04:50.305Z,96575.25
2023-05-24T06:07:17.222Z,96580.56
2023-05-24T06:09:44.080Z,96585.06
2023-05-24T06:12:10.935Z,96577.53
2023-05-24T06:14:38.720Z,96591.38
2023-05-24T06:17:06.919Z,96589.53
2023-05-24T06:19:34.096Z,96596.03
2023-05-24T06:22:01.601Z,96596.91
2023-05-24T06:24:28.868Z,96578.56
2023-05-24T06:26:56.169Z,96581.84
2023-05-24T06:29:25.411Z,96603.38
2023-05-24T06:31:52.781Z,96599.78
2023-05-24T06:34:23.257Z,96619.13
2023-05-24T06:36:51.590Z,96606.44
2023-05-24T06:39:19.250Z,96610.63
2023-05-24T06:41:47.384Z,96565.94
2023-05-24T06:44:14.656Z,96590.72
2023-05-24T06:46:41.670Z,96614.00
2023-05-24T06:49:08.882Z,96622.06
2023-05-24T06:51:36.912Z,96602.53
2023-05-24T06:54:03.950Z,96619.31
2023-05-24T06:56:30.843Z,96615.13
2023-05-24T06:58:58.584Z,96622.59
2023-05-24T07:01:25.525Z,96602.75
2023-05-24T07:03:52.929Z,96623.88
2023-05-24T07:06:19.908Z,96629.13
2023-05-24T07:08:46.884Z,96622.16
2023-05-24T07:11:13.942Z,96584.31
2023-05-24T07:13:40.939Z,96581.38
2023-05-24T07:16:07.792Z,96595.16
2023-05-24T07:18:34.719Z,96601.00
2023-05-24T07:21:01.922Z,96617.84
2023-05-24T07:23:28.806Z,96601.69
2023-05-24T07:25:55.736Z,96607.59
2023-05-24T07:28:22.691Z,96610.53
2023-05-24T07:30:49.919Z,96592.03
2023-05-24T07:33:17.301Z,96621.91
2023-05-24T07:35:46.056Z,96610.59
2023-05-24T07:38:13.056Z,96622.66
2023-05-24T07:40:39.999Z,96581.00
2023-05-24T07:43:07.047Z,96629.78
2023-05-24T07:45:34.364Z,96589.72
2023-05-24T07:48:02.151Z,96601.00
2023-05-24T07:50:29.587Z,96627.22
2023-05-24T07:52:57.549Z,96609.75
2023-05-24T07:55:24.422Z,96623.53
2023-05-24T07:57:51.680Z,96618.97
2023-05-24T08:00:20.385Z,96622.69
2023-05-24T08:02:47.287Z,96591.53
2023-05-24T08:05:14.486Z,96618.19
2023-05-24T08:07:42.215Z,96604.47
2023-05-24T08:10:14.230Z,96621.56
2023-05-24T08:12:42.006Z,96618.09
2023-05-24T08:15:09.451Z,96621.16
2023-05-24T08:17:36.813Z,96611.09
2023-05-24T08:20:09.149Z,96620.13
2023-05-24T08:22:37.614Z,96638.38
2023-05-24T08:25:05.022Z,96607.88
2023-05-24T08:27:32.093Z,96606.00
2023-05-24T08:29:59.189Z,96635.22
2023-05-24T08:32:26.100Z,96642.34
2023-05-24T08:35:06.799Z,96619.59
2023-05-24T08:37:37.952Z,96646.88
2023-05-24T08:40:05.353Z,96623.72
2023-05-24T08:42:32.438Z,96625.28
2023-05-24T08:45:04.575Z,96641.25
2023-05-24T08:47:33.137Z,96610.53
2023-05-24T08:50:01.114Z,96646.34
2023-05-24T08:52:32.485Z,96639.47
2023-05-24T08:55:00.205Z,96616.63
2023-05-24T08:57:28.489Z,96655.00
2023-05-24T08:59:58.277Z,96636.09
2023-05-24T09:02:25.307Z,96646.34
2023-05-24T09:04:53.358Z,96631.94
2023-05-24T09:07:24.438Z,96645.44
2023-05-24T09:10:01.265Z,96655.50
2023-05-24T09:12:38.170Z,96665.19
2023-05-24T09:15:07.795Z,96668.75
2023-05-24T09:17:37.242Z,96639.88
2023-05-24T09:20:07.434Z,96639.09
2023-05-24T09:22:36.906Z,96671.66
2023-05-24T09:25:06.492Z,96672.31
2023-05-24T09:27:35.251Z,96680.22
2023-05-24T09:30:05.653Z,96675.13
2023-05-24T09:32:32.656Z,96664.72
2023-05-24T09:35:00.255Z,96661.13
2023-05-24T09:37:32.695Z,96655.03
2023-05-24T09:40:00.196Z,96653.81
2023-05-24T09:42:29.018Z,96666.09
2023-05-24T09:45:07.067Z,96640.94
2023-05-24T09:47:35.756Z,96668.88
2023-05-24T09:50:04.652Z,96654.31
2023-05-24T09:52:33.238Z,96674.31
2023-05-24T09:55:01.097Z,96645.88
2023-05-24T09:57:28.506Z,96642.50
2023-05-24T09:59:55.577Z,96623.84
2023-05-24T10:02:24.106Z,96667.13
2023-05-24T10:05:00.743Z,96643.44
2023-05-24T10:07:27.898Z,96653.34
2023-05-24T10:09:55.633Z,96673.16
2023-05-24T10:12:23.462Z,96644.44
2023-05-24T10:14:52.289Z,96669.78
2023-05-24T10:17:19.272Z,96665.38
2023-05-24T10:19:46.550Z,96676.59
2023-05-24T10:22:14.476Z,96667.00
2023-05-24T10:24:47.626Z,96652.41
2023-05-24T10:27:19.580Z,96680.22
2023-05-24T10:29:59.568Z,96677.00
2023-05-24T10:32:31.885Z,96668.28
2023-05-24T10:35:02.997Z,96636.19
2023-05-24T10:37:32.120Z,96673.63
2023-05-24T10:40:00.408Z,96656.91
2023-05-24T10:42:27.465Z,96655.06
2023-05-24T10:44:57.066Z,96673.19
2023-05-24T10:47:28.922Z,96652.09
2023-05-24T10:49:59.385Z,96675.72
2023-05-24T10:52:36.666Z,96666.81
2023-05-24T10:55:09.934Z,96659.84
2023-05-24T10:57:38.586Z,96667.91
2023-05-24T11:03:23.882Z,96671.47
2023-05-24T11:05:53.600Z,96669.59
2023-05-24T11:08:33.416Z,96673.50
2023-05-24T11:13:41.678Z,96674.41
2023-05-24T11:16:08.762Z,96677.94
2023-05-24T11:18:40.316Z,96627.38
2023-05-24T11:21:08.277Z,96683.09
2023-05-24T11:23:38.289Z,96684.94
2023-05-24T11:33:23.782Z,96680.03
2023-05-24T11:35:55.545Z,96677.13
2023-05-24T11:38:24.946Z,96621.75
2023-05-24T11:40:52.386Z,96669.19
2023-05-24T11:43:20.903Z,96679.84
2023-05-24T11:45:52.882Z,96668.03
2023-05-24T11:48:20.756Z,96673.63
2023-05-24T11:50:50.387Z,96661.53
2023-05-24T11:53:19.557Z,96668.44
2023-05-24T11:55:46.876Z,96641.13
2023-05-24T11:58:29.966Z,96667.25
2023-05-24T12:00:56.844Z,96665.78
2023-05-24T12:03:23.897Z,96671.22
2023-05-24T12:05:51.641Z,96650.66
2023-05-24T12:08:18.635Z,96670.44
2023-05-24T12:10:45.766Z,96669.16
2023-05-24T12:13:23.833Z,96668.06
2023-05-24T12:15:56.530Z,96654.31
2023-05-24T12:18:26.152Z,96682.41
2023-05-24T12:20:53.407Z,96661.56
2023-05-24T12:23:23.538Z,96670.75
2023-05-24T12:25:50.998Z,96680.19
2023-05-24T12:28:24.987Z,96669.31
2023-05-24T12:30:52.101Z,96652.97
2023-05-24T12:33:20.419Z,96678.81
2023-05-24T12:35:48.872Z,96669.41
2023-05-24T12:38:20.125Z,96673.25
2023-05-24T12:40:57.082Z,96681.38
2023-05-24T12:43:35.274Z,96674.53
2023-05-24T12:46:02.139Z,96636.97
2023-05-24T12:48:29.271Z,96664.22
2023-05-24T12:50:56.139Z,96674.88
2023-05-24T12:53:24.809Z,96666.69
2023-05-24T12:55:56.099Z,96645.03
2023-05-24T12:58:23.073Z,96650.25
2023-05-24T13:00:50.616Z,96669.84
2023-05-24T13:03:17.807Z,96663.38
2023-05-24T13:05:44.964Z,96661.25
2023-05-24T13:08:12.318Z,96666.09
2023-05-24T13:10:39.645Z,96668.03
2023-05-24T13:13:07.041Z,96643.03
2023-05-24T13:15:33.969Z,96665.91
2023-05-24T13:18:01.182Z,96667.63
2023-05-24T13:20:28.381Z,96597.59
2023-05-24T13:22:55.408Z,96647.31
2023-05-24T13:25:22.903Z,96661.72
2023-05-24T13:27:49.960Z,96644.47
2023-05-24T13:30:17.577Z,96663.38
2023-05-24T13:32:44.826Z,96632.59
2023-05-24T13:35:11.791Z,96663.41
2023-05-24T13:37:39.117Z,96657.06
2023-05-24T13:40:07.063Z,96659.50
2023-05-24T13:42:34.067Z,96629.66
2023-05-24T13:45:01.283Z,96646.81
2023-05-24T13:47:41.375Z,96646.84
2023-05-24T13:50:09.245Z,96617.81
2023-05-24T13:52:37.100Z,96633.72
2023-05-24T13:55:07.383Z,96636.16
2023-05-24T14:00:09.283Z,96629.13
2023-05-24T14:02:37.718Z,96636.81
2023-05-24T14:05:24.924Z,96611.38
2023-05-24T14:07:53.457Z,96649.09
2023-05-24T14:10:21.692Z,96638.19
2023-05-24T14:12:59.379Z,96630.66
2023-05-24T14:15:31.580Z,96627.53
2023-05-24T14:17:58.992Z,96639.41
2023-05-24T14:20:26.217Z,96618.53
2023-05-24T14:22:53.178Z,96632.47
2023-05-24T14:25:20.181Z,96610.78
2023-05-24T14:27:47.177Z,96629.34
2023-05-24T14:30:14.514Z,96628.91
2023-05-24T14:32:41.550Z,96615.88
2023-05-24T14:35:08.714Z,96646.91
2023-05-24T14:37:35.647Z,96605.50
2023-05-24T14:40:02.870Z,96627.59
2023-05-24T14:42:29.809Z,96607.34
2023-05-24T14:44:56.910Z,96638.31
2023-05-24T14:47:23.889Z,96647.81
2023-05-24T14:49:51.084Z,96618.50
2023-05-24T14:52:18.113Z,96630.34
2023-05-24T14:54:44.984Z,96629.44
2023-05-24T14:57:12.396Z,96628.56
2023-05-24T14:59:39.320Z,96604.94
2023-05-24T15:02:06.708Z,96637.97
2023-05-24T15:04:33.823Z,96633.44
2023-05-24T15:07:01.089Z,96633.34
2023-05-24T15:09:27.964Z,96647.91
2023-05-24T15:11:54.872Z,96632.91
2023-05-24T15:14:22.149Z,96638.84
2023-05-24T15:16:49.849Z,96643.16
2023-05-24T15:19:16.801Z,96611.88
2023-05-24T15:21:43.684Z,96591.13
2023-05-24T15:24:10.732Z,96650.56
2023-05-24T15:26:37.727Z,96628.81
2023-05-24T15:29:04.973Z,96626.69
2023-05-24T15:31:31.907Z,96629.13
2023-05-24T15:33:58.886Z,96632.13
2023-05-24T15:36:25.984Z,96643.19
2023-05-24T15:38:52.932Z,96592.19
2023-05-24T15:41:19.837Z,96622.06
2023-05-24T15:43:46.884Z,96635.75
2023-05-24T15:46:13.866Z,96614.94
2023-05-24T15:48:40.790Z,96631.19
2023-05-24T15:53:37.910Z,96606.31
2023-05-24T15:56:05.086Z,96638.09
2023-05-24T15:58:32.008Z,96623.91
2023-05-24T16:00:58.947Z,96607.53
2023-05-24T16:03:26.223Z,96628.69
2023-05-24T16:05:53.220Z,96633.28
2023-05-24T16:08:27.865Z,96617.81
2023-05-24T16:10:56.003Z,96626.13
2023-05-24T16:13:23.423Z,96610.56
2023-05-24T16:15:51.994Z,96602.03
2023-05-24T16:18:22.950Z,96583.13
2023-05-24T16:20:51.214Z,96623.00
2023-05-24T16:23:19.773Z,96624.59
2023-05-24T16:25:46.859Z,96603.91
2023-05-24T16:28:13.812Z,96620.47
2023-05-24T16:30:41.069Z,96594.31
2023-05-24T16:33:08.145Z,96603.56
2023-05-24T16:35:35.166Z,96629.25
2023-05-24T16:38:02.164Z,96639.84
2023-05-24T16:40:29.207Z,96634.66
2023-05-24T16:42:56.323Z,96631.31
2023-05-24T16:45:23.285Z,96633.44
2023-05-24T16:47:50.250Z,96641.28
2023-05-24T16:50:17.243Z,96646.59
2023-05-24T16:52:44.936Z,96638.41
2023-05-24T16:55:12.667Z,96601.25
2023-05-24T16:57:39.626Z,96631.34
2023-05-24T17:00:07.756Z,96605.25
2023-05-24T17:02:35.142Z,96632.31
2023-05-24T17:05:02.147Z,96624.81
2023-05-24T17:07:29.034Z,96616.66
2023-05-24T17:09:56.049Z,96630.03
2023-05-24T17:12:23.038Z,96629.56
2023-05-24T17:14:49.956Z,96608.69
2023-05-24T17:17:16.872Z,96625.91
2023-05-24T17:19:43.781Z,96629.25
2023-05-24T17:22:11.322Z,96631.03
2023-05-24T17:24:38.565Z,96607.25
2023-05-24T17:27:05.810Z,96611.25
2023-05-24T17:29:33.013Z,96611.69
2023-05-24T17:31:59.980Z,96600.50
2023-05-24T17:34:27.365Z,96627.13
2023-05-24T17:40:29.953Z,96625.47
2023-05-24T17:42:56.916Z,96625.03
2023-05-24T17:45:24.128Z,96630.34
2023-05-24T17:47:51.066Z,96614.75
2023-05-24T17:50:18.057Z,96615.59
2023-05-24T17:52:44.957Z,96632.19
2023-05-24T17:55:11.854Z,96632.41
2023-05-24T17:57:38.760Z,96636.34
2023-05-24T18:00:07.736Z,96632.00
2023-05-24T18:02:34.842Z,96648.75
2023-05-24T18:05:01.832Z,96619.31
2023-05-24T18:07:30.332Z,96657.03
2023-05-24T18:10:00.088Z,96647.44
2023-05-24T18:12:27.421Z,96651.50
2023-05-24T18:14:54.376Z,96644.13
2023-05-24T18:17:21.745Z,96654.34
2023-05-24T18:19:48.792Z,96666.44
2023-05-24T18:22:16.688Z,96663.91
2023-05-24T18:24:43.642Z,96664.25
2023-05-24T18:27:10.618Z,96671.19
2023-05-24T18:29:37.569Z,96673.19
2023-05-24T18:32:04.742Z,96663.16
2023-05-24T18:34:32.269Z,96625.59
2023-05-24T18:36:59.431Z,96650.09
2023-05-24T18:39:26.457Z,96665.66
2023-05-24T18:41:53.383Z,96669.56
2023-05-24T18:44:20.353Z,96668.34
2023-05-24T18:46:47.407Z,96670.22
2023-05-24T18:49:14.646Z,96658.25
2023-05-24T18:51:41.606Z,96657.69
2023-05-24T18:54:09.299Z,96676.94
2023-05-24T18:56:36.172Z,96658.00
2023-05-24T18:59:03.123Z,96668.97
2023-05-24T19:01:30.159Z,96680.97
2023-05-24T19:03:57.118Z,96669.16
2023-05-24T19:06:24.165Z,96691.88
2023-05-24T19:08:51.401Z,96691.16
2023-05-24T19:11:18.333Z,96690.19
2023-05-24T19:13:45.249Z,96682.16
2023-05-24T19:16:17.912Z,96674.63
2023-05-24T19:18:45.299Z,96692.03
2023-05-24T19:21:12.737Z,96701.34
2023-05-24T19:23:40.905Z,96692.16
2023-05-24T19:26:07.890Z,96682.84
2023-05-24T19:28:37.979Z,96701.81
2023-05-24T19:31:05.144Z,96683.94
2023-05-24T19:33:32.172Z,96687.69
2023-05-24T19:35:59.089Z,96692.34
2023-05-24T19:38:26.411Z,96705.41
2023-05-24T19:40:53.283Z,96725.75
2023-05-24T19:43:20.175Z,96726.97
2023-05-24T19:45:48.291Z,96726.53
2023-05-24T19:48:15.217Z,96734.44
2023-05-24T19:50:42.230Z,96727.94
2023-05-24T19:53:09.246Z,96737.88
2023-05-24T19:55:36.789Z,96728.72
2023-05-24T19:58:03.835Z,96720.63
2023-05-24T20:00:30.813Z,96740.06
2023-05-24T20:02:57.863Z,96749.69
2023-05-24T20:05:45.298Z,96750.31
2023-05-24T20:08:12.391Z,96749.06
2023-05-24T20:10:40.272Z,96717.31
2023-05-24T20:13:07.218Z,96747.47
2023-05-24T20:15:34.152Z,96738.94
2023-05-24T20:18:01.172Z,96754.97
2023-05-24T20:20:28.249Z,96734.72
2023-05-24T20:22:55.200Z,96760.69
2023-05-24T20:25:22.115Z,96757.09
2023-05-24T20:27:49.091Z,96743.41
2023-05-24T20:30:18.079Z,96732.53
2023-05-24T20:32:45.475Z,96769.34
2023-05-24T20:35:12.694Z,96746.78
2023-05-24T20:37:40.668Z,96743.50
2023-05-24T20:40:08.360Z,96745.38
2023-05-24T20:42:35.936Z,96742.44
2023-05-24T20:45:03.775Z,96734.63
2023-05-24T20:47:30.897Z,96772.84
2023-05-24T20:49:57.959Z,96764.09
2023-05-24T20:52:24.855Z,96775.84
2023-05-24T20:54:51.846Z,96736.03
2023-05-24T20:57:18.817Z,96769.19
2023-05-24T20:59:45.861Z,96776.13
2023-05-24T21:02:12.821Z,96776.50
2023-05-24T21:04:39.803Z,96761.41
2023-05-24T21:07:08.104Z,96773.41
2023-05-24T21:09:35.126Z,96758.78
2023-05-24T21:12:02.560Z,96761.31
2023-05-24T21:14:30.721Z,96790.00
2023-05-24T21:16:57.647Z,96777.09
2023-05-24T21:19:24.576Z,96801.03
2023-05-24T21:21:51.564Z,96800.66
2023-05-24T21:24:18.566Z,96805.00
2023-05-24T21:26:45.529Z,96806.09
2023-05-24T21:29:13.415Z,96780.84
2023-05-24T21:31:41.397Z,96806.88
2023-05-24T21:34:08.377Z,96810.59
2023-05-24T21:36:35.347Z,96801.06
2023-05-24T21:39:07.726Z,96810.59
2023-05-24T21:41:35.397Z,96802.31
2023-05-24T21:44:02.325Z,96796.25
2023-05-24T21:46:29.530Z,96802.47
2023-05-24T21:48:57.556Z,96800.56
2023-05-24T21:51:24.544Z,96817.69
2023-05-24T21:53:52.045Z,96807.56
2023-05-24T21:56:19.097Z,96824.47
2023-05-24T21:58:46.054Z,96829.91
2023-05-24T22:01:12.983Z,96828.19
2023-05-24T22:03:40.284Z,96825.09
2023-05-24T22:06:07.432Z,96833.00
2023-05-24T22:08:34.436Z,96835.00
2023-05-24T22:11:01.750Z,96821.91
2023-05-24T22:13:28.730Z,96833.66
2023-05-24T22:15:55.816Z,96837.44
2023-05-24T22:18:23.038Z,96810.06
2023-05-24T22:20:50.901Z,96811.72
2023-05-24T22:23:17.969Z,96829.94
2023-05-24T22:25:45.206Z,96826.00
2023-05-24T22:28:12.220Z,96805.59
2023-05-24T22:30:39.249Z,96834.78
2023-05-24T22:33:06.375Z,96833.13
2023-05-24T22:35:33.425Z,96809.59
2023-05-24T22:38:00.338Z,96828.69
2023-05-24T22:40:27.291Z,96824.72
2023-05-24T22:42:54.223Z,96815.38
2023-05-24T22:45:22.818Z,96809.03
2023-05-24T22:47:50.472Z,96824.50
2023-05-24T22:50:17.507Z,96802.88
2023-05-24T22:52:46.602Z,96844.56
2023-05-24T22:55:13.583Z,96814.88
2023-05-24T22:57:40.793Z,96808.72
2023-05-24T23:00:08.539Z,96831.25
2023-05-24T23:02:36.630Z,96798.84
2023-05-24T23:05:04.302Z,96815.28
2023-05-24T23:07:31.354Z,96778.88
2023-05-24T23:09:59.985Z,96805.97
2023-05-24T23:12:26.973Z,96785.03
2023-05-24T23:14:54.408Z,96821.28
2023-05-24T23:17:22.508Z,96798.16
2023-05-24T23:19:50.613Z,96805.88
2023-05-24T23:22:20.401Z,96799.47
2023-05-24T23:24:50.124Z,96823.69
2023-05-24T23:27:17.375Z,96830.72
2023-05-24T23:29:44.587Z,96828.28
2023-05-24T23:32:11.903Z,96823.31
2023-05-24T23:34:38.806Z,96828.88
2023-05-24T23:37:06.330Z,96838.63
2023-05-24T23:39:33.315Z,96808.44
2023-05-24T23:42:00.229Z,96808.00
2023-05-24T23:44:27.121Z,96844.06
2023-05-24T23:46:54.219Z,96846.03
2023-05-24T23:49:21.198Z,96843.41
2023-05-24T23:51:48.162Z,96834.03
2023-05-24T23:54:15.297Z,96813.06
2023-05-24T23:56:42.977Z,96762.06
2023-05-24T23:59:09.949Z,96825.50
